sensor_id;sensor_type;location;lat;lon;timestamp;temperature;humidity
52125;DHT22;38119;52.710;6.398;2023-04-24T00:01:30;11.10;99.90
52125;DHT22;38119;52.710;6.398;2023-04-24T00:03:57;11.10;99.90
52125;DHT22;38119;52.710;6.398;2023-04-24T00:06:25;11.10;99.90
52125;DHT22;38119;52.710;6.398;2023-04-24T00:09:02;11.10;99.90
52125;DHT22;38119;52.710;6.398;2023-04-24T00:11:28;11.10;99.90
52125;DHT22;38119;52.710;6.398;2023-04-24T00:13:53;11.10;99.90
52125;DHT22;38119;52.710;6.398;2023-04-24T00:16:19;11.10;99.90
52125;DHT22;38119;52.710;6.398;2023-04-24T00:18:44;11.00;99.90
52125;DHT22;38119;52.710;6.398;2023-04-24T00:21:10;11.00;99.90
52125;DHT22;38119;52.710;6.398;2023-04-24T00:23:36;11.00;99.90
52125;DHT22;38119;52.710;6.398;2023-04-24T00:26:02;11.00;99.90
52125;DHT22;38119;52.710;6.398;2023-04-24T00:28:28;10.90;99.90
52125;DHT22;38119;52.710;6.398;2023-04-24T00:30:54;10.90;99.90
52125;DHT22;38119;52.710;6.398;2023-04-24T00:33:19;10.90;99.90
52125;DHT22;38119;52.710;6.398;2023-04-24T00:35:45;10.90;99.90
52125;DHT22;38119;52.710;6.398;2023-04-24T00:38:11;10.80;99.90
52125;DHT22;38119;52.710;6.398;2023-04-24T00:40:37;10.80;99.90
52125;DHT22;38119;52.710;6.398;2023-04-24T00:43:02;10.70;99.90
52125;DHT22;38119;52.710;6.398;2023-04-24T00:45:28;10.70;99.90
52125;DHT22;38119;52.710;6.398;2023-04-24T00:47:53;10.70;99.90
52125;DHT22;38119;52.710;6.398;2023-04-24T00:50:20;10.70;99.90
52125;DHT22;38119;52.710;6.398;2023-04-24T00:52:46;10.70;99.90
52125;DHT22;38119;52.710;6.398;2023-04-24T00:55:12;10.70;99.90
52125;DHT22;38119;52.710;6.398;2023-04-24T00:57:38;10.70;99.90
52125;DHT22;38119;52.710;6.398;2023-04-24T01:00:05;10.70;99.90
52125;DHT22;38119;52.710;6.398;2023-04-24T01:02:41;10.70;99.90
52125;DHT22;38119;52.710;6.398;2023-04-24T01:05:14;10.70;99.90
52125;DHT22;38119;52.710;6.398;2023-04-24T01:07:41;10.70;99.90
52125;DHT22;38119;52.710;6.398;2023-04-24T01:10:10;10.60;99.90
52125;DHT22;38119;52.710;6.398;2023-04-24T01:12:36;10.60;99.90
52125;DHT22;38119;52.710;6.398;2023-04-24T01:15:02;10.60;99.90
52125;DHT22;38119;52.710;6.398;2023-04-24T01:17:29;10.60;99.90
52125;DHT22;38119;52.710;6.398;2023-04-24T01:19:55;10.60;99.90
52125;DHT22;38119;52.710;6.398;2023-04-24T01:22:22;10.60;99.90
52125;DHT22;38119;52.710;6.398;2023-04-24T01:24:48;10.60;99.90
52125;DHT22;38119;52.710;6.398;2023-04-24T01:27:13;10.50;99.90
52125;DHT22;38119;52.710;6.398;2023-04-24T01:29:40;10.50;99.90
52125;DHT22;38119;52.710;6.398;2023-04-24T01:32:06;10.40;99.90
52125;DHT22;38119;52.710;6.398;2023-04-24T01:34:34;10.40;99.90
52125;DHT22;38119;52.710;6.398;2023-04-24T01:37:00;10.40;99.90
52125;DHT22;38119;52.710;6.398;2023-04-24T01:39:26;10.30;99.90
52125;DHT22;38119;52.710;6.398;2023-04-24T01:41:54;10.30;99.90
52125;DHT22;38119;52.710;6.398;2023-04-24T01:44:21;10.30;99.90
52125;DHT22;38119;52.710;6.398;2023-04-24T01:46:47;10.20;99.90
52125;DHT22;38119;52.710;6.398;2023-04-24T01:49:12;10.20;99.90
52125;DHT22;38119;52.710;6.398;2023-04-24T01:51:38;10.20;99.90
52125;DHT22;38119;52.710;6.398;2023-04-24T01:54:04;10.20;99.90
52125;DHT22;38119;52.710;6.398;2023-04-24T01:56:33;10.10;99.90
52125;DHT22;38119;52.710;6.398;2023-04-24T01:58:59;10.10;99.90
52125;DHT22;38119;52.710;6.398;2023-04-24T02:01:25;10.10;99.90
52125;DHT22;38119;52.710;6.398;2023-04-24T02:03:51;10.10;99.90
52125;DHT22;38119;52.710;6.398;2023-04-24T02:06:16;10.00;99.90
52125;DHT22;38119;52.710;6.398;2023-04-24T02:08:42;10.00;99.90
52125;DHT22;38119;52.710;6.398;2023-04-24T02:11:10;10.00;99.90
52125;DHT22;38119;52.710;6.398;2023-04-24T02:13:36;10.00;99.90
52125;DHT22;38119;52.710;6.398;2023-04-24T02:16:02;10.00;99.90
52125;DHT22;38119;52.710;6.398;2023-04-24T02:18:27;10.00;99.90
52125;DHT22;38119;52.710;6.398;2023-04-24T02:20:53;10.00;99.90
52125;DHT22;38119;52.710;6.398;2023-04-24T02:23:19;10.00;99.90
52125;DHT22;38119;52.710;6.398;2023-04-24T02:25:44;10.00;99.90
52125;DHT22;38119;52.710;6.398;2023-04-24T02:28:11;10.00;99.90
52125;DHT22;38119;52.710;6.398;2023-04-24T02:30:36;10.00;99.90
52125;DHT22;38119;52.710;6.398;2023-04-24T02:33:02;10.00;99.90
52125;DHT22;38119;52.710;6.398;2023-04-24T02:35:28;10.00;99.90
52125;DHT22;38119;52.710;6.398;2023-04-24T02:37:54;10.00;99.90
52125;DHT22;38119;52.710;6.398;2023-04-24T02:40:19;10.00;99.90
52125;DHT22;38119;52.710;6.398;2023-04-24T02:42:45;10.00;99.90
52125;DHT22;38119;52.710;6.398;2023-04-24T02:45:10;10.00;99.90
52125;DHT22;38119;52.710;6.398;2023-04-24T02:47:36;9.90;99.90
52125;DHT22;38119;52.710;6.398;2023-04-24T02:50:02;9.90;99.90
52125;DHT22;38119;52.710;6.398;2023-04-24T02:52:28;10.00;99.90
52125;DHT22;38119;52.710;6.398;2023-04-24T02:54:53;9.90;99.90
52125;DHT22;38119;52.710;6.398;2023-04-24T02:57:19;9.90;99.90
52125;DHT22;38119;52.710;6.398;2023-04-24T02:59:45;9.90;99.90
52125;DHT22;38119;52.710;6.398;2023-04-24T03:02:10;9.90;99.90
52125;DHT22;38119;52.710;6.398;2023-04-24T03:04:36;9.90;99.90
52125;DHT22;38119;52.710;6.398;2023-04-24T03:07:02;9.90;99.90
52125;DHT22;38119;52.710;6.398;2023-04-24T03:09:27;9.90;99.90
52125;DHT22;38119;52.710;6.398;2023-04-24T03:11:53;9.90;99.90
52125;DHT22;38119;52.710;6.398;2023-04-24T03:14:19;9.90;99.90
52125;DHT22;38119;52.710;6.398;2023-04-24T03:16:44;9.90;99.90
52125;DHT22;38119;52.710;6.398;2023-04-24T03:19:10;9.90;99.90
52125;DHT22;38119;52.710;6.398;2023-04-24T03:21:39;9.90;99.90
52125;DHT22;38119;52.710;6.398;2023-04-24T03:24:09;9.90;99.90
52125;DHT22;38119;52.710;6.398;2023-04-24T03:26:35;9.80;99.90
52125;DHT22;38119;52.710;6.398;2023-04-24T03:29:01;9.80;99.90
52125;DHT22;38119;52.710;6.398;2023-04-24T03:31:26;9.80;99.90
52125;DHT22;38119;52.710;6.398;2023-04-24T03:33:52;9.80;99.90
52125;DHT22;38119;52.710;6.398;2023-04-24T03:36:18;9.80;99.90
52125;DHT22;38119;52.710;6.398;2023-04-24T03:38:44;9.80;99.90
52125;DHT22;38119;52.710;6.398;2023-04-24T03:41:11;9.80;99.90
52125;DHT22;38119;52.710;6.398;2023-04-24T03:43:37;9.80;99.90
52125;DHT22;38119;52.710;6.398;2023-04-24T03:46:03;9.80;99.90
52125;DHT22;38119;52.710;6.398;2023-04-24T03:48:29;9.80;99.90
52125;DHT22;38119;52.710;6.398;2023-04-24T03:50:55;9.70;99.90
52125;DHT22;38119;52.710;6.398;2023-04-24T03:53:20;9.80;99.90
52125;DHT22;38119;52.710;6.398;2023-04-24T03:55:46;9.80;99.90
52125;DHT22;38119;52.710;6.398;2023-04-24T03:58:12;9.70;99.90
52125;DHT22;38119;52.710;6.398;2023-04-24T04:00:39;9.70;99.90
52125;DHT22;38119;52.710;6.398;2023-04-24T04:03:06;9.70;99.90
52125;DHT22;38119;52.710;6.398;2023-04-24T04:05:31;9.60;99.90
52125;DHT22;38119;52.710;6.398;2023-04-24T04:07:57;9.70;99.90
52125;DHT22;38119;52.710;6.398;2023-04-24T04:10:22;9.70;99.90
52125;DHT22;38119;52.710;6.398;2023-04-24T04:12:48;9.70;99.90
52125;DHT22;38119;52.710;6.398;2023-04-24T04:15:13;9.70;99.90
52125;DHT22;38119;52.710;6.398;2023-04-24T04:17:39;9.70;99.90
52125;DHT22;38119;52.710;6.398;2023-04-24T04:20:05;9.70;99.90
52125;DHT22;38119;52.710;6.398;2023-04-24T04:22:34;9.60;99.90
52125;DHT22;38119;52.710;6.398;2023-04-24T04:25:00;9.60;99.90
52125;DHT22;38119;52.710;6.398;2023-04-24T04:27:26;9.60;99.90
52125;DHT22;38119;52.710;6.398;2023-04-24T04:29:52;9.70;99.90
52125;DHT22;38119;52.710;6.398;2023-04-24T04:32:17;9.60;99.90
52125;DHT22;38119;52.710;6.398;2023-04-24T04:34:43;9.60;99.90
52125;DHT22;38119;52.710;6.398;2023-04-24T04:37:11;9.60;99.90
52125;DHT22;38119;52.710;6.398;2023-04-24T04:39:38;9.60;99.90
52125;DHT22;38119;52.710;6.398;2023-04-24T04:42:03;9.50;99.90
52125;DHT22;38119;52.710;6.398;2023-04-24T04:44:29;9.50;99.90
52125;DHT22;38119;52.710;6.398;2023-04-24T04:46:56;9.50;99.90
52125;DHT22;38119;52.710;6.398;2023-04-24T04:49:22;9.50;99.90
52125;DHT22;38119;52.710;6.398;2023-04-24T04:51:49;9.50;99.90
52125;DHT22;38119;52.710;6.398;2023-04-24T04:54:16;9.50;99.90
52125;DHT22;38119;52.710;6.398;2023-04-24T04:56:42;9.50;99.90
52125;DHT22;38119;52.710;6.398;2023-04-24T04:59:07;9.40;99.90
52125;DHT22;38119;52.710;6.398;2023-04-24T05:01:33;9.50;99.90
52125;DHT22;38119;52.710;6.398;2023-04-24T05:03:58;9.50;99.90
52125;DHT22;38119;52.710;6.398;2023-04-24T05:06:24;9.50;99.90
52125;DHT22;38119;52.710;6.398;2023-04-24T05:08:50;9.50;99.90
52125;DHT22;38119;52.710;6.398;2023-04-24T05:11:16;9.40;99.90
52125;DHT22;38119;52.710;6.398;2023-04-24T05:13:42;9.40;99.90
52125;DHT22;38119;52.710;6.398;2023-04-24T05:16:07;9.40;99.90
52125;DHT22;38119;52.710;6.398;2023-04-24T05:18:33;9.50;99.90
52125;DHT22;38119;52.710;6.398;2023-04-24T05:20:58;9.60;99.90
52125;DHT22;38119;52.710;6.398;2023-04-24T05:23:24;9.60;99.90
52125;DHT22;38119;52.710;6.398;2023-04-24T05:25:50;9.70;99.90
52125;DHT22;38119;52.710;6.398;2023-04-24T05:28:15;9.70;99.90
52125;DHT22;38119;52.710;6.398;2023-04-24T05:30:41;9.70;99.90
52125;DHT22;38119;52.710;6.398;2023-04-24T05:33:07;9.70;99.90
52125;DHT22;38119;52.710;6.398;2023-04-24T05:35:33;9.80;99.90
52125;DHT22;38119;52.710;6.398;2023-04-24T05:37:59;9.80;99.90
52125;DHT22;38119;52.710;6.398;2023-04-24T05:40:24;9.80;99.90
52125;DHT22;38119;52.710;6.398;2023-04-24T05:42:50;9.90;99.90
52125;DHT22;38119;52.710;6.398;2023-04-24T05:45:16;9.90;99.90
52125;DHT22;38119;52.710;6.398;2023-04-24T05:47:43;9.90;99.90
52125;DHT22;38119;52.710;6.398;2023-04-24T05:50:11;10.00;99.90
52125;DHT22;38119;52.710;6.398;2023-04-24T05:52:37;10.00;99.90
52125;DHT22;38119;52.710;6.398;2023-04-24T05:55:03;10.00;99.90
52125;DHT22;38119;52.710;6.398;2023-04-24T05:57:28;10.00;99.90
52125;DHT22;38119;52.710;6.398;2023-04-24T05:59:54;10.00;99.90
52125;DHT22;38119;52.710;6.398;2023-04-24T06:02:19;10.00;99.90
52125;DHT22;38119;52.710;6.398;2023-04-24T06:04:45;10.00;99.90
52125;DHT22;38119;52.710;6.398;2023-04-24T06:07:11;10.00;99.90
52125;DHT22;38119;52.710;6.398;2023-04-24T06:09:36;10.00;99.90
52125;DHT22;38119;52.710;6.398;2023-04-24T06:12:02;10.00;99.90
52125;DHT22;38119;52.710;6.398;2023-04-24T06:14:28;10.00;99.90
52125;DHT22;38119;52.710;6.398;2023-04-24T06:16:53;10.00;99.90
52125;DHT22;38119;52.710;6.398;2023-04-24T06:19:19;10.00;99.90
52125;DHT22;38119;52.710;6.398;2023-04-24T06:21:44;10.00;99.90
52125;DHT22;38119;52.710;6.398;2023-04-24T06:24:10;10.00;99.90
52125;DHT22;38119;52.710;6.398;2023-04-24T06:26:36;10.00;99.90
52125;DHT22;38119;52.710;6.398;2023-04-24T06:29:01;10.00;99.90
52125;DHT22;38119;52.710;6.398;2023-04-24T06:31:27;10.00;99.90
52125;DHT22;38119;52.710;6.398;2023-04-24T06:33:53;10.00;99.90
52125;DHT22;38119;52.710;6.398;2023-04-24T06:36:18;10.00;99.90
52125;DHT22;38119;52.710;6.398;2023-04-24T06:38:44;10.00;99.90
52125;DHT22;38119;52.710;6.398;2023-04-24T06:41:10;10.00;99.90
52125;DHT22;38119;52.710;6.398;2023-04-24T06:43:35;9.90;99.90
52125;DHT22;38119;52.710;6.398;2023-04-24T06:46:01;9.90;99.90
52125;DHT22;38119;52.710;6.398;2023-04-24T06:48:29;9.90;99.90
52125;DHT22;38119;52.710;6.398;2023-04-24T06:50:54;9.90;99.90
52125;DHT22;38119;52.710;6.398;2023-04-24T06:53:20;10.00;99.90
52125;DHT22;38119;52.710;6.398;2023-04-24T06:55:46;10.00;99.90
52125;DHT22;38119;52.710;6.398;2023-04-24T06:58:12;10.00;99.90
52125;DHT22;38119;52.710;6.398;2023-04-24T07:00:37;10.00;99.90
52125;DHT22;38119;52.710;6.398;2023-04-24T07:03:03;10.00;99.90
52125;DHT22;38119;52.710;6.398;2023-04-24T07:05:31;10.00;99.90
52125;DHT22;38119;52.710;6.398;2023-04-24T07:07:56;10.00;99.90
52125;DHT22;38119;52.710;6.398;2023-04-24T07:10:24;10.00;99.90
52125;DHT22;38119;52.710;6.398;2023-04-24T07:12:49;10.00;99.90
52125;DHT22;38119;52.710;6.398;2023-04-24T07:15:15;10.00;99.90
52125;DHT22;38119;52.710;6.398;2023-04-24T07:17:41;10.00;99.90
52125;DHT22;38119;52.710;6.398;2023-04-24T07:20:10;10.00;99.90
52125;DHT22;38119;52.710;6.398;2023-04-24T07:22:37;10.00;99.90
52125;DHT22;38119;52.710;6.398;2023-04-24T07:25:02;10.00;99.90
52125;DHT22;38119;52.710;6.398;2023-04-24T07:27:28;10.00;99.90
52125;DHT22;38119;52.710;6.398;2023-04-24T07:29:54;10.00;99.90
52125;DHT22;38119;52.710;6.398;2023-04-24T07:32:19;10.00;99.90
52125;DHT22;38119;52.710;6.398;2023-04-24T07:34:45;10.00;99.90
52125;DHT22;38119;52.710;6.398;2023-04-24T07:37:11;10.00;99.90
52125;DHT22;38119;52.710;6.398;2023-04-24T07:39:36;10.00;99.90
52125;DHT22;38119;52.710;6.398;2023-04-24T07:42:02;10.00;99.90
52125;DHT22;38119;52.710;6.398;2023-04-24T07:44:28;10.00;99.90
52125;DHT22;38119;52.710;6.398;2023-04-24T07:46:53;10.70;99.90
52125;DHT22;38119;52.710;6.398;2023-04-24T07:49:19;10.00;99.90
52125;DHT22;38119;52.710;6.398;2023-04-24T07:51:45;10.00;99.90
52125;DHT22;38119;52.710;6.398;2023-04-24T07:54:10;10.00;99.90
52125;DHT22;38119;52.710;6.398;2023-04-24T07:56:36;10.00;99.90
52125;DHT22;38119;52.710;6.398;2023-04-24T07:59:04;10.00;99.90
52125;DHT22;38119;52.710;6.398;2023-04-24T08:01:30;10.00;99.90
52125;DHT22;38119;52.710;6.398;2023-04-24T08:03:55;10.00;99.90
52125;DHT22;38119;52.710;6.398;2023-04-24T08:06:22;10.00;99.90
52125;DHT22;38119;52.710;6.398;2023-04-24T08:08:47;10.00;99.90
52125;DHT22;38119;52.710;6.398;2023-04-24T08:11:13;10.00;99.90
52125;DHT22;38119;52.710;6.398;2023-04-24T08:13:38;10.00;99.90
52125;DHT22;38119;52.710;6.398;2023-04-24T08:16:04;10.00;99.90
52125;DHT22;38119;52.710;6.398;2023-04-24T08:18:30;9.90;99.90
52125;DHT22;38119;52.710;6.398;2023-04-24T08:20:55;9.90;99.90
52125;DHT22;38119;52.710;6.398;2023-04-24T08:23:21;9.90;99.90
52125;DHT22;38119;52.710;6.398;2023-04-24T08:25:47;9.80;99.90
52125;DHT22;38119;52.710;6.398;2023-04-24T08:28:13;9.80;99.90
52125;DHT22;38119;52.710;6.398;2023-04-24T08:30:45;9.80;99.90
52125;DHT22;38119;52.710;6.398;2023-04-24T08:33:11;9.80;99.90
52125;DHT22;38119;52.710;6.398;2023-04-24T08:35:36;9.80;99.90
52125;DHT22;38119;52.710;6.398;2023-04-24T08:38:02;9.80;99.90
52125;DHT22;38119;52.710;6.398;2023-04-24T08:40:28;9.80;99.90
52125;DHT22;38119;52.710;6.398;2023-04-24T08:42:55;9.70;99.90
52125;DHT22;38119;52.710;6.398;2023-04-24T08:45:24;9.80;99.90
52125;DHT22;38119;52.710;6.398;2023-04-24T08:47:50;9.70;99.90
52125;DHT22;38119;52.710;6.398;2023-04-24T08:50:17;9.70;99.90
52125;DHT22;38119;52.710;6.398;2023-04-24T08:52:43;9.70;99.90
52125;DHT22;38119;52.710;6.398;2023-04-24T08:55:09;9.70;99.90
52125;DHT22;38119;52.710;6.398;2023-04-24T08:57:35;9.60;99.90
52125;DHT22;38119;52.710;6.398;2023-04-24T09:00:01;9.60;99.90
52125;DHT22;38119;52.710;6.398;2023-04-24T09:02:27;9.60;99.90
52125;DHT22;38119;52.710;6.398;2023-04-24T09:04:55;9.50;99.90
52125;DHT22;38119;52.710;6.398;2023-04-24T09:07:22;9.50;99.90
52125;DHT22;38119;52.710;6.398;2023-04-24T09:09:50;9.50;99.90
52125;DHT22;38119;52.710;6.398;2023-04-24T09:12:17;9.50;99.90
52125;DHT22;38119;52.710;6.398;2023-04-24T09:14:42;9.50;99.90
52125;DHT22;38119;52.710;6.398;2023-04-24T09:17:10;9.50;99.90
52125;DHT22;38119;52.710;6.398;2023-04-24T09:19:36;9.50;99.90
52125;DHT22;38119;52.710;6.398;2023-04-24T09:22:06;9.50;99.90
52125;DHT22;38119;52.710;6.398;2023-04-24T09:24:33;9.50;99.90
52125;DHT22;38119;52.710;6.398;2023-04-24T09:26:59;9.50;99.90
52125;DHT22;38119;52.710;6.398;2023-04-24T09:29:27;9.50;99.90
52125;DHT22;38119;52.710;6.398;2023-04-24T09:31:52;9.50;99.90
52125;DHT22;38119;52.710;6.398;2023-04-24T09:34:23;9.50;99.90
52125;DHT22;38119;52.710;6.398;2023-04-24T09:36:49;9.50;99.90
52125;DHT22;38119;52.710;6.398;2023-04-24T09:39:16;9.60;99.90
52125;DHT22;38119;52.710;6.398;2023-04-24T09:41:50;9.60;99.90
52125;DHT22;38119;52.710;6.398;2023-04-24T09:44:19;9.60;99.90
52125;DHT22;38119;52.710;6.398;2023-04-24T09:46:50;9.60;99.90
52125;DHT22;38119;52.710;6.398;2023-04-24T09:49:20;9.70;99.90
52125;DHT22;38119;52.710;6.398;2023-04-24T09:51:45;9.70;99.90
52125;DHT22;38119;52.710;6.398;2023-04-24T09:54:19;9.80;99.90
52125;DHT22;38119;52.710;6.398;2023-04-24T09:56:48;9.80;99.90
52125;DHT22;38119;52.710;6.398;2023-04-24T09:59:16;9.90;99.90
52125;DHT22;38119;52.710;6.398;2023-04-24T10:01:42;9.90;99.90
52125;DHT22;38119;52.710;6.398;2023-04-24T10:04:16;9.90;99.90
52125;DHT22;38119;52.710;6.398;2023-04-24T10:06:43;9.80;99.90
52125;DHT22;38119;52.710;6.398;2023-04-24T10:09:09;9.80;99.90
52125;DHT22;38119;52.710;6.398;2023-04-24T10:11:37;9.80;99.90
52125;DHT22;38119;52.710;6.398;2023-04-24T10:14:03;9.80;99.90
52125;DHT22;38119;52.710;6.398;2023-04-24T10:16:29;9.70;99.90
52125;DHT22;38119;52.710;6.398;2023-04-24T10:18:59;9.60;99.90
52125;DHT22;38119;52.710;6.398;2023-04-24T10:21:26;9.60;99.90
52125;DHT22;38119;52.710;6.398;2023-04-24T10:23:52;9.50;99.90
52125;DHT22;38119;52.710;6.398;2023-04-24T10:26:19;9.40;99.90
52125;DHT22;38119;52.710;6.398;2023-04-24T10:28:46;9.30;99.90
52125;DHT22;38119;52.710;6.398;2023-04-24T10:31:13;9.30;99.90
52125;DHT22;38119;52.710;6.398;2023-04-24T10:33:43;9.20;99.90
52125;DHT22;38119;52.710;6.398;2023-04-24T10:36:13;9.20;99.90
52125;DHT22;38119;52.710;6.398;2023-04-24T10:38:41;9.20;99.90
52125;DHT22;38119;52.710;6.398;2023-04-24T10:41:11;9.20;99.90
52125;DHT22;38119;52.710;6.398;2023-04-24T10:43:46;9.20;99.90
52125;DHT22;38119;52.710;6.398;2023-04-24T10:46:20;9.20;99.90
52125;DHT22;38119;52.710;6.398;2023-04-24T10:48:54;9.30;99.90
52125;DHT22;38119;52.710;6.398;2023-04-24T10:51:22;9.30;99.90
52125;DHT22;38119;52.710;6.398;2023-04-24T10:53:50;9.30;99.90
52125;DHT22;38119;52.710;6.398;2023-04-24T10:56:16;9.30;99.90
52125;DHT22;38119;52.710;6.398;2023-04-24T10:58:43;9.40;99.90
52125;DHT22;38119;52.710;6.398;2023-04-24T11:01:30;9.50;99.90
52125;DHT22;38119;52.710;6.398;2023-04-24T11:04:02;9.50;99.90
52125;DHT22;38119;52.710;6.398;2023-04-24T11:06:35;9.60;99.90
52125;DHT22;38119;52.710;6.398;2023-04-24T11:09:06;9.70;99.90
52125;DHT22;38119;52.710;6.398;2023-04-24T11:11:33;9.70;99.90
52125;DHT22;38119;52.710;6.398;2023-04-24T11:19:26;9.80;99.90
52125;DHT22;38119;52.710;6.398;2023-04-24T11:22:01;9.90;99.90
52125;DHT22;38119;52.710;6.398;2023-04-24T11:24:49;9.80;99.90
52125;DHT22;38119;52.710;6.398;2023-04-24T11:27:18;9.80;99.90
52125;DHT22;38119;52.710;6.398;2023-04-24T11:29:49;9.80;99.90
52125;DHT22;38119;52.710;6.398;2023-04-24T11:32:23;9.80;99.90
52125;DHT22;38119;52.710;6.398;2023-04-24T11:34:50;9.70;99.90
52125;DHT22;38119;52.710;6.398;2023-04-24T11:37:16;9.70;99.90
52125;DHT22;38119;52.710;6.398;2023-04-24T11:39:42;9.70;99.90
52125;DHT22;38119;52.710;6.398;2023-04-24T11:42:09;9.70;99.90
52125;DHT22;38119;52.710;6.398;2023-04-24T11:44:35;9.70;99.90
52125;DHT22;38119;52.710;6.398;2023-04-24T11:47:06;9.70;99.90
52125;DHT22;38119;52.710;6.398;2023-04-24T11:49:38;9.80;99.90
52125;DHT22;38119;52.710;6.398;2023-04-24T11:52:04;9.80;99.90
52125;DHT22;38119;52.710;6.398;2023-04-24T11:54:30;9.80;99.90
52125;DHT22;38119;52.710;6.398;2023-04-24T11:56:56;9.70;99.90
52125;DHT22;38119;52.710;6.398;2023-04-24T11:59:22;9.60;99.90
52125;DHT22;38119;52.710;6.398;2023-04-24T12:01:48;9.60;99.90
52125;DHT22;38119;52.710;6.398;2023-04-24T12:04:16;9.70;99.90
52125;DHT22;38119;52.710;6.398;2023-04-24T12:07:01;9.70;99.90
52125;DHT22;38119;52.710;6.398;2023-04-24T12:09:27;9.80;99.90
52125;DHT22;38119;52.710;6.398;2023-04-24T12:11:56;9.80;99.90
52125;DHT22;38119;52.710;6.398;2023-04-24T12:14:24;9.80;99.90
52125;DHT22;38119;52.710;6.398;2023-04-24T12:16:50;9.80;99.90
52125;DHT22;38119;52.710;6.398;2023-04-24T12:19:23;9.80;99.90
52125;DHT22;38119;52.710;6.398;2023-04-24T12:22:06;9.90;99.90
52125;DHT22;38119;52.710;6.398;2023-04-24T12:24:31;9.90;99.90
52125;DHT22;38119;52.710;6.398;2023-04-24T12:26:57;9.90;99.90
52125;DHT22;38119;52.710;6.398;2023-04-24T12:29:24;10.00;99.90
52125;DHT22;38119;52.710;6.398;2023-04-24T12:31:53;9.90;99.90
52125;DHT22;38119;52.710;6.398;2023-04-24T12:34:22;10.60;99.90
52125;DHT22;38119;52.710;6.398;2023-04-24T12:36:48;9.70;99.90
52125;DHT22;38119;52.710;6.398;2023-04-24T12:39:18;9.60;99.90
52125;DHT22;38119;52.710;6.398;2023-04-24T12:41:54;9.60;99.90
52125;DHT22;38119;52.710;6.398;2023-04-24T12:44:29;9.50;99.90
52125;DHT22;38119;52.710;6.398;2023-04-24T12:46:55;9.50;99.90
52125;DHT22;38119;52.710;6.398;2023-04-24T12:49:20;9.60;99.90
52125;DHT22;38119;52.710;6.398;2023-04-24T12:51:46;9.50;99.90
52125;DHT22;38119;52.710;6.398;2023-04-24T12:54:11;9.60;99.90
52125;DHT22;38119;52.710;6.398;2023-04-24T12:56:37;9.60;99.90
52125;DHT22;38119;52.710;6.398;2023-04-24T12:59:04;9.60;99.90
52125;DHT22;38119;52.710;6.398;2023-04-24T13:01:30;9.60;99.90
52125;DHT22;38119;52.710;6.398;2023-04-24T13:03:59;9.60;99.90
52125;DHT22;38119;52.710;6.398;2023-04-24T13:06:25;9.60;99.90
52125;DHT22;38119;52.710;6.398;2023-04-24T13:08:52;9.60;99.90
52125;DHT22;38119;52.710;6.398;2023-04-24T13:11:24;9.60;99.90
52125;DHT22;38119;52.710;6.398;2023-04-24T13:13:50;9.50;99.90
52125;DHT22;38119;52.710;6.398;2023-04-24T13:16:16;9.50;99.90
52125;DHT22;38119;52.710;6.398;2023-04-24T13:18:41;9.40;99.90
52125;DHT22;38119;52.710;6.398;2023-04-24T13:21:07;9.40;99.90
52125;DHT22;38119;52.710;6.398;2023-04-24T13:23:33;9.20;99.90
52125;DHT22;38119;52.710;6.398;2023-04-24T13:25:59;9.40;99.90
52125;DHT22;38119;52.710;6.398;2023-04-24T13:28:26;9.40;99.90
52125;DHT22;38119;52.710;6.398;2023-04-24T13:30:53;9.40;99.90
52125;DHT22;38119;52.710;6.398;2023-04-24T13:33:18;9.40;99.90
52125;DHT22;38119;52.710;6.398;2023-04-24T13:35:44;9.30;99.90
52125;DHT22;38119;52.710;6.398;2023-04-24T13:38:10;9.40;99.90
52125;DHT22;38119;52.710;6.398;2023-04-24T13:40:35;9.40;99.90
52125;DHT22;38119;52.710;6.398;2023-04-24T13:43:01;9.40;99.90
52125;DHT22;38119;52.710;6.398;2023-04-24T13:45:28;9.50;99.90
52125;DHT22;38119;52.710;6.398;2023-04-24T13:47:54;9.60;99.90
52125;DHT22;38119;52.710;6.398;2023-04-24T13:50:20;7.90;99.90
52125;DHT22;38119;52.710;6.398;2023-04-24T13:52:46;9.60;99.90
52125;DHT22;38119;52.710;6.398;2023-04-24T13:55:13;9.50;99.90
52125;DHT22;38119;52.710;6.398;2023-04-24T13:57:39;9.60;99.90
52125;DHT22;38119;52.710;6.398;2023-04-24T14:00:08;9.50;99.90
52125;DHT22;38119;52.710;6.398;2023-04-24T14:02:35;9.40;99.90
52125;DHT22;38119;52.710;6.398;2023-04-24T14:05:04;9.30;99.90
52125;DHT22;38119;52.710;6.398;2023-04-24T14:07:31;9.20;99.90
52125;DHT22;38119;52.710;6.398;2023-04-24T14:09:57;9.20;99.90
52125;DHT22;38119;52.710;6.398;2023-04-24T14:12:22;9.10;99.90
52125;DHT22;38119;52.710;6.398;2023-04-24T14:14:48;9.20;99.90
52125;DHT22;38119;52.710;6.398;2023-04-24T14:17:14;9.20;99.90
52125;DHT22;38119;52.710;6.398;2023-04-24T14:19:40;9.10;99.90
52125;DHT22;38119;52.710;6.398;2023-04-24T14:22:05;9.20;99.90
52125;DHT22;38119;52.710;6.398;2023-04-24T14:24:31;9.20;99.90
52125;DHT22;38119;52.710;6.398;2023-04-24T14:26:57;9.20;99.90
52125;DHT22;38119;52.710;6.398;2023-04-24T14:29:23;9.20;99.90
52125;DHT22;38119;52.710;6.398;2023-04-24T14:31:48;9.10;99.90
52125;DHT22;38119;52.710;6.398;2023-04-24T14:34:14;9.20;99.90
52125;DHT22;38119;52.710;6.398;2023-04-24T14:36:39;9.10;99.90
52125;DHT22;38119;52.710;6.398;2023-04-24T14:39:06;9.20;99.90
52125;DHT22;38119;52.710;6.398;2023-04-24T14:41:33;9.20;99.90
52125;DHT22;38119;52.710;6.398;2023-04-24T14:44:05;9.60;99.90
52125;DHT22;38119;52.710;6.398;2023-04-24T14:46:31;9.20;99.90
52125;DHT22;38119;52.710;6.398;2023-04-24T14:48:57;9.30;99.90
52125;DHT22;38119;52.710;6.398;2023-04-24T14:51:23;9.30;99.90
52125;DHT22;38119;52.710;6.398;2023-04-24T14:53:49;9.30;99.90
52125;DHT22;38119;52.710;6.398;2023-04-24T14:56:15;9.30;99.90
52125;DHT22;38119;52.710;6.398;2023-04-24T14:58:40;9.30;99.90
52125;DHT22;38119;52.710;6.398;2023-04-24T15:01:07;9.70;99.90
52125;DHT22;38119;52.710;6.398;2023-04-24T15:03:35;9.20;99.90
52125;DHT22;38119;52.710;6.398;2023-04-24T15:06:01;9.20;99.90
52125;DHT22;38119;52.710;6.398;2023-04-24T15:08:27;9.20;99.90
52125;DHT22;38119;52.710;6.398;2023-04-24T15:10:53;9.20;99.90
52125;DHT22;38119;52.710;6.398;2023-04-24T15:13:19;9.30;99.90
52125;DHT22;38119;52.710;6.398;2023-04-24T15:15:46;9.40;99.90
52125;DHT22;38119;52.710;6.398;2023-04-24T15:18:12;9.50;99.90
52125;DHT22;38119;52.710;6.398;2023-04-24T15:20:38;9.40;99.90
52125;DHT22;38119;52.710;6.398;2023-04-24T15:23:10;9.40;99.90
52125;DHT22;38119;52.710;6.398;2023-04-24T15:25:36;9.40;99.90
52125;DHT22;38119;52.710;6.398;2023-04-24T15:28:02;9.30;99.90
52125;DHT22;38119;52.710;6.398;2023-04-24T15:30:28;9.30;99.90
52125;DHT22;38119;52.710;6.398;2023-04-24T15:32:54;8.90;99.90
52125;DHT22;38119;52.710;6.398;2023-04-24T15:35:20;9.40;99.90
52125;DHT22;38119;52.710;6.398;2023-04-24T15:37:45;9.20;99.90
52125;DHT22;38119;52.710;6.398;2023-04-24T15:40:12;9.40;99.90
52125;DHT22;38119;52.710;6.398;2023-04-24T15:42:41;9.40;99.90